sensor_id;sensor_type;location;lat;lon;timestamp;pressure;altitude;pressure_sealevel;temperature;humidity
12676;BME280;63820;65.654;21.944;2023-02-22T00:00:29;101916.94;;;-19.98;100.00
12676;BME280;63820;65.654;21.944;2023-02-22T00:03:28;101923.75;;;-20.04;100.00
12676;BME280;63820;65.654;21.944;2023-02-22T00:06:18;101923.59;;;-20.06;100.00
12676;BME280;63820;65.654;21.944;2023-02-22T00:09:03;101903.44;;;-20.17;100.00
12676;BME280;63820;65.654;21.944;2023-02-22T00:11:47;101914.63;;;-20.21;100.00
12676;BME280;63820;65.654;21.944;2023-02-22T00:14:31;101918.53;;;-20.23;100.00
12676;BME280;63820;65.654;21.944;2023-02-22T00:17:16;101915.44;;;-20.29;100.00
12676;BME280;63820;65.654;21.944;2023-02-22T00:20:00;101913.75;;;-20.22;100.00
12676;BME280;63820;65.654;21.944;2023-02-22T00:22:46;101929.06;;;-20.17;100.00
12676;BME280;63820;65.654;21.944;2023-02-22T00:25:32;101935.69;;;-20.25;100.00
12676;BME280;63820;65.654;21.944;2023-02-22T00:28:17;101942.97;;;-20.26;100.00
12676;BME280;63820;65.654;21.944;2023-02-22T00:31:03;101932.25;;;-20.18;100.00
12676;BME280;63820;65.654;21.944;2023-02-22T00:33:48;101918.44;;;-20.40;100.00
12676;BME280;63820;65.654;21.944;2023-02-22T00:36:33;101933.22;;;-20.49;100.00
12676;BME280;63820;65.654;21.944;2023-02-22T00:39:17;101927.63;;;-20.55;100.00
12676;BME280;63820;65.654;21.944;2023-02-22T00:42:02;101932.03;;;-20.52;100.00
12676;BME280;63820;65.654;21.944;2023-02-22T00:44:46;101933.16;;;-20.58;100.00
12676;BME280;63820;65.654;21.944;2023-02-22T00:47:30;101934.81;;;-20.49;100.00
12676;BME280;63820;65.654;21.944;2023-02-22T00:50:18;101942.31;;;-20.57;100.00
12676;BME280;63820;65.654;21.944;2023-02-22T00:53:03;101939.47;;;-20.68;100.00
12676;BME280;63820;65.654;21.944;2023-02-22T00:55:48;101943.19;;;-20.72;100.00
12676;BME280;63820;65.654;21.944;2023-02-22T00:58:32;101927.75;;;-20.78;100.00
12676;BME280;63820;65.654;21.944;2023-02-22T01:01:16;101943.03;;;-20.58;100.00
12676;BME280;63820;65.654;21.944;2023-02-22T01:04:00;101953.81;;;-20.57;100.00
12676;BME280;63820;65.654;21.944;2023-02-22T01:06:44;101948.38;;;-20.62;100.00
12676;BME280;63820;65.654;21.944;2023-02-22T01:09:29;101960.81;;;-20.69;100.00
12676;BME280;63820;65.654;21.944;2023-02-22T01:12:13;101961.34;;;-20.80;100.00
12676;BME280;63820;65.654;21.944;2023-02-22T01:14:59;101950.88;;;-20.93;100.00
12676;BME280;63820;65.654;21.944;2023-02-22T01:17:43;101955.50;;;-20.96;100.00
12676;BME280;63820;65.654;21.944;2023-02-22T01:20:28;101960.84;;;-21.00;100.00
12676;BME280;63820;65.654;21.944;2023-02-22T01:23:13;101949.53;;;-20.98;100.00
12676;BME280;63820;65.654;21.944;2023-02-22T01:25:57;101956.63;;;-21.01;100.00
12676;BME280;63820;65.654;21.944;2023-02-22T01:28:41;101958.59;;;-21.06;100.00
12676;BME280;63820;65.654;21.944;2023-02-22T01:31:26;101963.38;;;-21.07;100.00
12676;BME280;63820;65.654;21.944;2023-02-22T01:34:11;101953.91;;;-21.11;100.00
12676;BME280;63820;65.654;21.944;2023-02-22T01:36:55;101950.25;;;-20.99;100.00
12676;BME280;63820;65.654;21.944;2023-02-22T01:39:40;101962.03;;;-20.97;100.00
12676;BME280;63820;65.654;21.944;2023-02-22T01:42:24;101950.63;;;-21.03;100.00
12676;BME280;63820;65.654;21.944;2023-02-22T01:48:41;101958.59;;;-21.06;100.00
12676;BME280;63820;65.654;21.944;2023-02-22T01:51:31;101947.97;;;-21.21;100.00
12676;BME280;63820;65.654;21.944;2023-02-22T01:54:24;101960.09;;;-21.15;100.00
12676;BME280;63820;65.654;21.944;2023-02-22T01:57:21;101963.44;;;-21.14;100.00
12676;BME280;63820;65.654;21.944;2023-02-22T02:00:17;101971.25;;;-21.18;100.00
12676;BME280;63820;65.654;21.944;2023-02-22T02:03:08;101981.47;;;-21.15;100.00
12676;BME280;63820;65.654;21.944;2023-02-22T02:05:58;101966.72;;;-21.23;100.00
12676;BME280;63820;65.654;21.944;2023-02-22T02:11:41;101961.00;;;-21.53;100.00
12676;BME280;63820;65.654;21.944;2023-02-22T02:14:25;101978.22;;;-21.46;100.00
12676;BME280;63820;65.654;21.944;2023-02-22T02:17:12;101980.41;;;-21.56;100.00
12676;BME280;63820;65.654;21.944;2023-02-22T02:23:23;101983.69;;;-21.71;100.00
12676;BME280;63820;65.654;21.944;2023-02-22T02:41:20;101994.56;;;-21.62;100.00
12676;BME280;63820;65.654;21.944;2023-02-22T02:44:16;101989.31;;;-21.65;100.00
12676;BME280;63820;65.654;21.944;2023-02-22T02:50:30;101980.75;;;-21.53;100.00
12676;BME280;63820;65.654;21.944;2023-02-22T02:53:29;101992.75;;;-21.56;100.00
12676;BME280;63820;65.654;21.944;2023-02-22T02:56:15;101988.25;;;-21.67;100.00
12676;BME280;63820;65.654;21.944;2023-02-22T02:58:59;101979.53;;;-21.79;100.00
12676;BME280;63820;65.654;21.944;2023-02-22T03:01:47;101989.91;;;-21.75;100.00
12676;BME280;63820;65.654;21.944;2023-02-22T03:07:40;101982.44;;;-21.68;100.00
12676;BME280;63820;65.654;21.944;2023-02-22T03:13:50;101988.25;;;-21.67;100.00
12676;BME280;63820;65.654;21.944;2023-02-22T03:17:03;101987.44;;;-21.75;100.00
12676;BME280;63820;65.654;21.944;2023-02-22T03:26:08;102006.41;;;-21.90;100.00
12676;BME280;63820;65.654;21.944;2023-02-22T03:28:55;102003.28;;;-21.96;100.00
12676;BME280;63820;65.654;21.944;2023-02-22T03:31:45;101985.56;;;-22.07;100.00
12676;BME280;63820;65.654;21.944;2023-02-22T03:34:39;101999.16;;;-22.11;100.00
12676;BME280;63820;65.654;21.944;2023-02-22T03:37:28;101993.00;;;-22.14;100.00
12676;BME280;63820;65.654;21.944;2023-02-22T03:40:18;101996.31;;;-22.07;100.00
12676;BME280;63820;65.654;21.944;2023-02-22T03:43:18;101992.34;;;-21.98;100.00
12676;BME280;63820;65.654;21.944;2023-02-22T03:46:06;101996.59;;;-21.97;100.00
12676;BME280;63820;65.654;21.944;2023-02-22T03:49:00;102001.84;;;-21.94;100.00
12676;BME280;63820;65.654;21.944;2023-02-22T03:51:46;102007.63;;;-21.86;100.00
12676;BME280;63820;65.654;21.944;2023-02-22T03:54:31;102015.81;;;-21.78;100.00
12676;BME280;63820;65.654;21.944;2023-02-22T03:57:27;102015.13;;;-21.77;100.00
12676;BME280;63820;65.654;21.944;2023-02-22T04:00:15;102025.34;;;-21.81;100.00
12676;BME280;63820;65.654;21.944;2023-02-22T04:03:03;102021.91;;;-21.91;100.00
12676;BME280;63820;65.654;21.944;2023-02-22T04:05:48;102028.31;;;-22.00;100.00
12676;BME280;63820;65.654;21.944;2023-02-22T04:08:33;102028.00;;;-22.03;100.00
12676;BME280;63820;65.654;21.944;2023-02-22T04:11:18;102019.31;;;-21.99;100.00
12676;BME280;63820;65.654;21.944;2023-02-22T04:14:02;102028.47;;;-21.98;100.00
12676;BME280;63820;65.654;21.944;2023-02-22T04:16:46;102026.06;;;-21.82;100.00
12676;BME280;63820;65.654;21.944;2023-02-22T04:19:31;102014.31;;;-21.62;100.00
12676;BME280;63820;65.654;21.944;2023-02-22T04:22:15;102005.75;;;-21.50;100.00
12676;BME280;63820;65.654;21.944;2023-02-22T04:25:00;102018.00;;;-21.36;100.00
12676;BME280;63820;65.654;21.944;2023-02-22T04:27:44;102014.59;;;-21.13;100.00
12676;BME280;63820;65.654;21.944;2023-02-22T04:30:28;102003.88;;;-20.98;100.00
12676;BME280;63820;65.654;21.944;2023-02-22T04:33:13;102002.75;;;-20.77;100.00
12676;BME280;63820;65.654;21.944;2023-02-22T04:35:59;101995.84;;;-20.73;100.00
12676;BME280;63820;65.654;21.944;2023-02-22T04:38:43;102004.44;;;-20.53;100.00
12676;BME280;63820;65.654;21.944;2023-02-22T04:41:28;101998.38;;;-20.48;100.00
12676;BME280;63820;65.654;21.944;2023-02-22T04:44:12;101993.69;;;-20.54;100.00
12676;BME280;63820;65.654;21.944;2023-02-22T04:46:57;101999.25;;;-20.48;100.00
12676;BME280;63820;65.654;21.944;2023-02-22T04:49:41;102006.28;;;-20.44;100.00
12676;BME280;63820;65.654;21.944;2023-02-22T04:52:26;102001.81;;;-20.39;100.00
12676;BME280;63820;65.654;21.944;2023-02-22T04:55:10;102012.59;;;-20.39;100.00
12676;BME280;63820;65.654;21.944;2023-02-22T04:57:55;102008.81;;;-20.35;100.00
12676;BME280;63820;65.654;21.944;2023-02-22T05:00:40;102017.81;;;-20.20;100.00
12676;BME280;63820;65.654;21.944;2023-02-22T05:03:24;102015.72;;;-20.08;100.00
12676;BME280;63820;65.654;21.944;2023-02-22T05:06:09;102018.03;;;-20.10;100.00
12676;BME280;63820;65.654;21.944;2023-02-22T05:08:55;102022.25;;;-20.09;100.00
12676;BME280;63820;65.654;21.944;2023-02-22T05:11:40;102015.31;;;-20.04;100.00
12676;BME280;63820;65.654;21.944;2023-02-22T05:14:24;102013.94;;;-19.94;100.00
12676;BME280;63820;65.654;21.944;2023-02-22T05:17:11;102019.09;;;-19.83;100.00
12676;BME280;63820;65.654;21.944;2023-02-22T05:19:55;102027.00;;;-19.70;100.00
12676;BME280;63820;65.654;21.944;2023-02-22T05:22:39;102024.03;;;-19.50;100.00
12676;BME280;63820;65.654;21.944;2023-02-22T05:25:25;102024.41;;;-19.39;100.00
12676;BME280;63820;65.654;21.944;2023-02-22T05:28:11;102029.84;;;-19.26;100.00
12676;BME280;63820;65.654;21.944;2023-02-22T05:30:56;102036.44;;;-19.17;100.00
12676;BME280;63820;65.654;21.944;2023-02-22T05:33:40;102044.06;;;-19.07;100.00
12676;BME280;63820;65.654;21.944;2023-02-22T05:36:24;102040.59;;;-19.01;100.00
12676;BME280;63820;65.654;21.944;2023-02-22T05:39:10;102041.94;;;-18.96;100.00
12676;BME280;63820;65.654;21.944;2023-02-22T05:41:56;102046.47;;;-18.92;100.00
12676;BME280;63820;65.654;21.944;2023-02-22T05:44:40;102050.53;;;-18.92;100.00
12676;BME280;63820;65.654;21.944;2023-02-22T05:47:26;102050.84;;;-18.89;100.00
12676;BME280;63820;65.654;21.944;2023-02-22T05:50:10;102058.91;;;-18.83;100.00
12676;BME280;63820;65.654;21.944;2023-02-22T05:52:54;102057.88;;;-18.85;100.00
12676;BME280;63820;65.654;21.944;2023-02-22T05:55:39;102058.16;;;-18.82;100.00
12676;BME280;63820;65.654;21.944;2023-02-22T05:58:23;102067.25;;;-18.74;100.00
12676;BME280;63820;65.654;21.944;2023-02-22T06:01:07;102054.09;;;-18.64;100.00
12676;BME280;63820;65.654;21.944;2023-02-22T06:03:51;102047.38;;;-18.57;100.00
12676;BME280;63820;65.654;21.944;2023-02-22T06:06:35;102043.78;;;-18.34;100.00
12676;BME280;63820;65.654;21.944;2023-02-22T06:09:19;102050.34;;;-18.26;100.00
12676;BME280;63820;65.654;21.944;2023-02-22T06:12:04;102050.22;;;-18.19;100.00
12676;BME280;63820;65.654;21.944;2023-02-22T06:14:48;102051.53;;;-18.14;100.00
12676;BME280;63820;65.654;21.944;2023-02-22T06:17:32;102060.72;;;-18.04;100.00
12676;BME280;63820;65.654;21.944;2023-02-22T06:20:20;102053.00;;;-17.99;100.00
12676;BME280;63820;65.654;21.944;2023-02-22T06:23:04;102059.41;;;-18.01;100.00
12676;BME280;63820;65.654;21.944;2023-02-22T06:25:48;102047.16;;;-17.99;100.00
12676;BME280;63820;65.654;21.944;2023-02-22T06:28:33;102047.28;;;-18.06;100.00
12676;BME280;63820;65.654;21.944;2023-02-22T06:31:17;102062.19;;;-17.98;100.00
12676;BME280;63820;65.654;21.944;2023-02-22T06:34:01;102057.81;;;-17.92;100.00
12676;BME280;63820;65.654;21.944;2023-02-22T06:36:47;102049.47;;;-17.75;100.00
12676;BME280;63820;65.654;21.944;2023-02-22T06:39:31;102049.44;;;-17.66;100.00
12676;BME280;63820;65.654;21.944;2023-02-22T06:42:15;102052.88;;;-17.47;100.00
12676;BME280;63820;65.654;21.944;2023-02-22T06:45:00;102059.59;;;-17.46;100.00
12676;BME280;63820;65.654;21.944;2023-02-22T06:47:44;102055.50;;;-17.37;100.00
12676;BME280;63820;65.654;21.944;2023-02-22T06:50:29;102053.84;;;-17.28;100.00
12676;BME280;63820;65.654;21.944;2023-02-22T06:53:14;102061.75;;;-17.23;100.00
12676;BME280;63820;65.654;21.944;2023-02-22T06:55:58;102054.25;;;-17.14;100.00
12676;BME280;63820;65.654;21.944;2023-02-22T06:58:43;102069.47;;;-17.11;100.00
12676;BME280;63820;65.654;21.944;2023-02-22T07:01:27;102058.13;;;-16.91;100.00
12676;BME280;63820;65.654;21.944;2023-02-22T07:04:11;102067.38;;;-16.98;100.00
12676;BME280;63820;65.654;21.944;2023-02-22T07:06:55;102063.81;;;-16.92;100.00
12676;BME280;63820;65.654;21.944;2023-02-22T07:09:39;102069.63;;;-17.18;100.00
12676;BME280;63820;65.654;21.944;2023-02-22T07:12:23;102072.94;;;-17.01;100.00
12676;BME280;63820;65.654;21.944;2023-02-22T07:15:07;102068.28;;;-17.06;100.00
12676;BME280;63820;65.654;21.944;2023-02-22T07:17:52;102068.00;;;-17.09;100.00
12676;BME280;63820;65.654;21.944;2023-02-22T07:20:37;102061.81;;;-17.04;100.00
12676;BME280;63820;65.654;21.944;2023-02-22T07:23:21;102068.41;;;-16.69;100.00
12676;BME280;63820;65.654;21.944;2023-02-22T07:26:06;102059.78;;;-16.54;100.00
12676;BME280;63820;65.654;21.944;2023-02-22T07:28:50;102063.38;;;-16.41;100.00
12676;BME280;63820;65.654;21.944;2023-02-22T07:31:36;102059.91;;;-16.06;100.00
12676;BME280;63820;65.654;21.944;2023-02-22T07:34:21;102059.44;;;-16.02;100.00
12676;BME280;63820;65.654;21.944;2023-02-22T07:37:05;102068.72;;;-15.91;100.00
12676;BME280;63820;65.654;21.944;2023-02-22T07:39:49;102066.03;;;-15.83;100.00
12676;BME280;63820;65.654;21.944;2023-02-22T07:43:13;102072.03;;;-16.46;100.00
12676;BME280;63820;65.654;21.944;2023-02-22T07:45:55;102060.31;;;-16.47;100.00
12676;BME280;63820;65.654;21.944;2023-02-22T07:48:39;102070.94;;;-16.59;100.00
12676;BME280;63820;65.654;21.944;2023-02-22T07:51:24;102069.91;;;-16.61;100.00
12676;BME280;63820;65.654;21.944;2023-02-22T07:54:08;102068.53;;;-16.48;100.00
12676;BME280;63820;65.654;21.944;2023-02-22T07:56:53;102055.13;;;-16.13;100.00
12676;BME280;63820;65.654;21.944;2023-02-22T07:59:37;102058.47;;;-16.31;100.00
12676;BME280;63820;65.654;21.944;2023-02-22T08:02:21;102063.06;;;-15.79;100.00
12676;BME280;63820;65.654;21.944;2023-02-22T08:05:06;102043.22;;;-15.49;100.00
12676;BME280;63820;65.654;21.944;2023-02-22T08:07:51;102047.81;;;-15.54;100.00
12676;BME280;63820;65.654;21.944;2023-02-22T08:10:36;102037.47;;;-15.48;100.00
12676;BME280;63820;65.654;21.944;2023-02-22T08:13:21;102047.44;;;-15.48;100.00
12676;BME280;63820;65.654;21.944;2023-02-22T08:16:05;102050.78;;;-15.29;100.00
12676;BME280;63820;65.654;21.944;2023-02-22T08:18:50;102052.97;;;-15.42;100.00
12676;BME280;63820;65.654;21.944;2023-02-22T08:21:34;102055.06;;;-15.46;100.00
12676;BME280;63820;65.654;21.944;2023-02-22T08:24:18;102050.28;;;-15.54;100.00
12676;BME280;63820;65.654;21.944;2023-02-22T08:27:02;102047.09;;;-15.81;100.00
12676;BME280;63820;65.654;21.944;2023-02-22T08:29:46;102041.72;;;-15.57;100.00
12676;BME280;63820;65.654;21.944;2023-02-22T08:32:30;102032.41;;;-15.00;100.00
12676;BME280;63820;65.654;21.944;2023-02-22T08:35:16;102017.94;;;-14.84;100.00
12676;BME280;63820;65.654;21.944;2023-02-22T08:38:04;102041.19;;;-14.44;100.00
12676;BME280;63820;65.654;21.944;2023-02-22T08:40:49;102027.28;;;-14.41;100.00
12676;BME280;63820;65.654;21.944;2023-02-22T08:43:33;102024.00;;;-14.09;100.00
12676;BME280;63820;65.654;21.944;2023-02-22T08:46:17;102031.50;;;-14.09;100.00
12676;BME280;63820;65.654;21.944;2023-02-22T08:49:01;102038.75;;;-14.23;100.00
12676;BME280;63820;65.654;21.944;2023-02-22T08:51:46;102039.81;;;-13.78;100.00
12676;BME280;63820;65.654;21.944;2023-02-22T08:54:30;102035.41;;;-13.61;100.00
12676;BME280;63820;65.654;21.944;2023-02-22T08:57:14;102028.66;;;-13.40;100.00
12676;BME280;63820;65.654;21.944;2023-02-22T08:59:58;102029.66;;;-13.38;100.00
12676;BME280;63820;65.654;21.944;2023-02-22T09:02:43;102019.16;;;-13.44;100.00
12676;BME280;63820;65.654;21.944;2023-02-22T09:05:28;102033.56;;;-13.73;100.00
12676;BME280;63820;65.654;21.944;2023-02-22T09:08:12;102029.88;;;-13.99;100.00
12676;BME280;63820;65.654;21.944;2023-02-22T09:10:58;102023.41;;;-13.43;100.00
12676;BME280;63820;65.654;21.944;2023-02-22T09:13:42;102026.94;;;-13.51;100.00
12676;BME280;63820;65.654;21.944;2023-02-22T09:16:26;102024.56;;;-13.17;100.00
12676;BME280;63820;65.654;21.944;2023-02-22T09:19:10;102037.56;;;-13.00;100.00
12676;BME280;63820;65.654;21.944;2023-02-22T09:21:58;102026.44;;;-12.81;100.00
12676;BME280;63820;65.654;21.944;2023-02-22T09:24:45;102020.25;;;-11.48;100.00
12676;BME280;63820;65.654;21.944;2023-02-22T09:27:29;102020.88;;;-9.88;93.86
12676;BME280;63820;65.654;21.944;2023-02-22T09:30:25;102001.50;;;-5.79;66.76
12676;BME280;63820;65.654;21.944;2023-02-22T09:33:19;101998.25;;;-3.17;55.59
12676;BME280;63820;65.654;21.944;2023-02-22T09:36:04;101999.44;;;-1.56;47.19
12676;BME280;63820;65.654;21.944;2023-02-22T09:38:50;102007.72;;;-0.12;42.06
12676;BME280;63820;65.654;21.944;2023-02-22T09:44:57;102009.88;;;-1.49;40.91
12676;BME280;63820;65.654;21.944;2023-02-22T09:47:55;102009.22;;;-0.53;41.06
12676;BME280;63820;65.654;21.944;2023-02-22T09:50:41;101997.97;;;-0.27;38.57
12676;BME280;63820;65.654;21.944;2023-02-22T09:53:35;102002.53;;;-0.80;38.45
12676;BME280;63820;65.654;21.944;2023-02-22T09:56:25;101985.63;;;-0.43;37.88
12676;BME280;63820;65.654;21.944;2023-02-22T09:59:12;101991.38;;;-0.19;37.52
12676;BME280;63820;65.654;21.944;2023-02-22T10:02:12;101989.41;;;-0.92;39.35
12676;BME280;63820;65.654;21.944;2023-02-22T10:05:10;101986.88;;;-0.60;40.50
12676;BME280;63820;65.654;21.944;2023-02-22T10:08:02;101982.19;;;0.63;37.33
12676;BME280;63820;65.654;21.944;2023-02-22T10:11:02;101980.91;;;0.44;35.33
12676;BME280;63820;65.654;21.944;2023-02-22T10:14:45;101980.56;;;2.04;34.95
12676;BME280;63820;65.654;21.944;2023-02-22T10:26:19;101962.06;;;6.49;29.82
12676;BME280;63820;65.654;21.944;2023-02-22T10:32:02;101950.13;;;3.82;31.51
12676;BME280;63820;65.654;21.944;2023-02-22T10:34:49;101949.66;;;2.58;33.24
12676;BME280;63820;65.654;21.944;2023-02-22T10:37:36;101956.41;;;2.50;33.93
12676;BME280;63820;65.654;21.944;2023-02-22T10:40:22;101945.69;;;1.65;34.84
12676;BME280;63820;65.654;21.944;2023-02-22T10:43:14;101951.16;;;0.49;37.52
12676;BME280;63820;65.654;21.944;2023-02-22T10:46:02;101942.50;;;1.30;36.57
12676;BME280;63820;65.654;21.944;2023-02-22T10:48:50;101930.97;;;1.53;36.67
12676;BME280;63820;65.654;21.944;2023-02-22T10:51:35;101933.81;;;1.22;37.39
12676;BME280;63820;65.654;21.944;2023-02-22T10:54:24;101940.72;;;1.74;36.26
12676;BME280;63820;65.654;21.944;2023-02-22T10:57:10;101930.06;;;2.03;36.59
12676;BME280;63820;65.654;21.944;2023-02-22T10:59:56;101941.28;;;2.73;35.82
12676;BME280;63820;65.654;21.944;2023-02-22T11:02:53;101938.94;;;2.26;36.52
12676;BME280;63820;65.654;21.944;2023-02-22T11:05:39;101932.22;;;2.34;36.79
12676;BME280;63820;65.654;21.944;2023-02-22T11:08:28;101926.78;;;2.14;35.96
12676;BME280;63820;65.654;21.944;2023-02-22T11:11:25;101930.59;;;4.10;35.12
12676;BME280;63820;65.654;21.944;2023-02-22T11:14:24;101929.84;;;4.31;33.99
12676;BME280;63820;65.654;21.944;2023-02-22T11:17:09;101926.72;;;3.55;34.94
12676;BME280;63820;65.654;21.944;2023-02-22T11:19:57;101926.22;;;1.26;38.02
12676;BME280;63820;65.654;21.944;2023-02-22T11:22:42;101925.16;;;1.17;38.35
12676;BME280;63820;65.654;21.944;2023-02-22T11:25:38;101916.25;;;0.95;40.49
12676;BME280;63820;65.654;21.944;2023-02-22T11:28:27;101920.81;;;-0.78;41.45
12676;BME280;63820;65.654;21.944;2023-02-22T11:34:24;101910.88;;;-2.16;43.67
12676;BME280;63820;65.654;21.944;2023-02-22T11:43:17;101903.69;;;-6.13;55.22
12676;BME280;63820;65.654;21.944;2023-02-22T11:46:10;101905.06;;;-4.87;52.13
12676;BME280;63820;65.654;21.944;2023-02-22T11:49:01;101897.50;;;-4.03;50.59
12676;BME280;63820;65.654;21.944;2023-02-22T11:58:00;101890.00;;;-4.43;50.61
12676;BME280;63820;65.654;21.944;2023-02-22T12:21:43;101884.88;;;-7.38;59.38
12676;BME280;63820;65.654;21.944;2023-02-22T12:24:35;101878.47;;;-6.81;59.79
12676;BME280;63820;65.654;21.944;2023-02-22T12:27:30;101868.00;;;-6.00;56.00
12676;BME280;63820;65.654;21.944;2023-02-22T12:30:22;101870.16;;;-5.70;56.35
12676;BME280;63820;65.654;21.944;2023-02-22T12:33:14;101871.09;;;-5.10;54.30
12676;BME280;63820;65.654;21.944;2023-02-22T12:36:01;101869.63;;;-5.05;53.35
12676;BME280;63820;65.654;21.944;2023-02-22T12:38:51;101868.97;;;-5.59;56.27
12676;BME280;63820;65.654;21.944;2023-02-22T12:41:45;101862.66;;;-4.90;53.46
12676;BME280;63820;65.654;21.944;2023-02-22T12:44:36;101863.31;;;-5.53;53.74
12676;BME280;63820;65.654;21.944;2023-02-22T12:47:30;101867.38;;;-5.57;54.33
12676;BME280;63820;65.654;21.944;2023-02-22T12:50:22;101855.47;;;-5.77;53.07
12676;BME280;63820;65.654;21.944;2023-02-22T12:53:16;101856.25;;;-6.52;55.25
12676;BME280;63820;65.654;21.944;2023-02-22T12:56:40;101853.38;;;-7.10;57.05
12676;BME280;63820;65.654;21.944;2023-02-22T12:59:32;101858.94;;;-7.82;57.82
12676;BME280;63820;65.654;21.944;2023-02-22T13:02:29;101861.28;;;-9.21;61.93
12676;BME280;63820;65.654;21.944;2023-02-22T13:05:17;101857.66;;;-9.82;65.50
12676;BME280;63820;65.654;21.944;2023-02-22T13:20:23;101842.06;;;-11.35;92.17
12676;BME280;63820;65.654;21.944;2023-02-22T13:23:12;101839.22;;;-11.39;93.46
12676;BME280;63820;65.654;21.944;2023-02-22T13:26:24;101839.56;;;-11.60;95.48
12676;BME280;63820;65.654;21.944;2023-02-22T13:53:14;101812.69;;;-12.70;100.00
12676;BME280;63820;65.654;21.944;2023-02-22T13:55:59;101814.41;;;-12.81;100.00
12676;BME280;63820;65.654;21.944;2023-02-22T13:58:53;101746.59;;;-13.31;100.00
12676;BME280;63820;65.654;21.944;2023-02-22T14:01:46;101802.09;;;-13.01;100.00
12676;BME280;63820;65.654;21.944;2023-02-22T14:10:01;101786.88;;;-13.16;100.00
12676;BME280;63820;65.654;21.944;2023-02-22T14:12:47;101776.63;;;-13.31;100.00
12676;BME280;63820;65.654;21.944;2023-02-22T14:15:31;101787.72;;;-13.27;100.00
12676;BME280;63820;65.654;21.944;2023-02-22T14:18:16;101767.13;;;-13.35;100.00
12676;BME280;63820;65.654;21.944;2023-02-22T14:21:09;101769.94;;;-13.42;100.00
12676;BME280;63820;65.654;21.944;2023-02-22T14:23:55;101773.00;;;-13.58;100.00
12676;BME280;63820;65.654;21.944;2023-02-22T14:29:53;101750.56;;;-13.68;100.00
12676;BME280;63820;65.654;21.944;2023-02-22T14:32:38;101747.63;;;-13.62;100.00
12676;BME280;63820;65.654;21.944;2023-02-22T14:35:23;101752.41;;;-13.65;100.00
12676;BME280;63820;65.654;21.944;2023-02-22T14:38:15;101746.19;;;-13.70;100.00
12676;BME280;63820;65.654;21.944;2023-02-22T14:41:01;101738.25;;;-13.76;100.00
12676;BME280;63820;65.654;21.944;2023-02-22T14:43:47;101736.47;;;-13.89;100.00
12676;BME280;63820;65.654;21.944;2023-02-22T14:46:35;101735.34;;;-13.93;100.00
12676;BME280;63820;65.654;21.944;2023-02-22T14:49:26;101719.91;;;-13.99;100.00
12676;BME280;63820;65.654;21.944;2023-02-22T14:52:35;101720.66;;;-14.00;100.00
12676;BME280;63820;65.654;21.944;2023-02-22T14:55:23;101710.50;;;-14.13;100.00
12676;BME280;63820;65.654;21.944;2023-02-22T14:58:13;101693.06;;;-14.23;100.00
12676;BME280;63820;65.654;21.944;2023-02-22T15:01:25;101703.94;;;-14.23;100.00
12676;BME280;63820;65.654;21.944;2023-02-22T15:07:10;101696.72;;;-14.41;100.00
12676;BME280;63820;65.654;21.944;2023-02-22T15:10:20;101693.75;;;-14.47;100.00
12676;BME280;63820;65.654;21.944;2023-02-22T15:13:13;101688.28;;;-14.53;100.00
12676;BME280;63820;65.654;21.944;2023-02-22T15:16:01;101685.47;;;-14.58;100.00
12676;BME280;63820;65.654;21.944;2023-02-22T15:18:48;101676.53;;;-14.66;100.00
12676;BME280;63820;65.654;21.944;2023-02-22T15:21:35;101675.53;;;-14.68;100.00
12676;BME280;63820;65.654;21.944;2023-02-22T15:24:26;101667.94;;;-14.70;100.00
12676;BME280;63820;65.654;21.944;2023-02-22T15:27:16;101664.72;;;-14.79;100.00
12676;BME280;63820;65.654;21.944;2023-02-22T15:33:11;101663.06;;;-15.00;100.00
12676;BME280;63820;65.654;21.944;2023-02-22T15:35:56;101661.38;;;-15.11;100.00
12676;BME280;63820;65.654;21.944;2023-02-22T15:38:47;101654.44;;;-15.26;100.00
12676;BME280;63820;65.654;21.944;2023-02-22T15:41:32;101652.72;;;-15.37;100.00
12676;BME280;63820;65.654;21.944;2023-02-22T15:44:16;101641.78;;;-15.49;100.00
12676;BME280;63820;65.654;21.944;2023-02-22T15:47:02;101643.56;;;-15.58;100.00
12676;BME280;63820;65.654;21.944;2023-02-22T15:50:19;101646.88;;;-15.69;100.00
12676;BME280;63820;65.654;21.944;2023-02-22T15:53:24;101639.91;;;-15.83;100.00
12676;BME280;63820;65.654;21.944;2023-02-22T15:56:18;101631.19;;;-15.99;100.00
12676;BME280;63820;65.654;21.944;2023-02-22T15:59:13;101629.56;;;-15.98;100.00
12676;BME280;63820;65.654;21.944;2023-02-22T16:01:58;101614.25;;;-16.13;100.00
12676;BME280;63820;65.654;21.944;2023-02-22T16:04:42;101615.88;;;-16.13;100.00
12676;BME280;63820;65.654;21.944;2023-02-22T16:07:27;101611.38;;;-16.17;100.00
12676;BME280;63820;65.654;21.944;2023-02-22T16:10:31;101610.78;;;-16.25;100.00
12676;BME280;63820;65.654;21.944;2023-02-22T16:13:22;101609.78;;;-16.27;100.00
12676;BME280;63820;65.654;21.944;2023-02-22T16:19:28;101593.09;;;-16.28;100.00
12676;BME280;63820;65.654;21.944;2023-02-22T16:22:36;101577.91;;;-16.31;100.00
12676;BME280;63820;65.654;21.944;2023-02-22T16:28:26;101585.63;;;-16.28;100.00
12676;BME280;63820;65.654;21.944;2023-02-22T16:31:10;101586.38;;;-16.29;100.00
12676;BME280;63820;65.654;21.944;2023-02-22T16:33:55;101580.13;;;-16.34;100.00
12676;BME280;63820;65.654;21.944;2023-02-22T16:36:43;101581.13;;;-16.22;100.00
12676;BME280;63820;65.654;21.944;2023-02-22T16:39:30;101578.88;;;-16.19;100.00